Time;durP1;ratioP1;P1;durP2;ratioP2;P2;SDS_P1;SDS_P2;PMS_P1;PMS_P2;Temp;Humidity;BMP_temperature;BMP_pressure;BME280_temperature;BME280_humidity;BME280_pressure;Samples;Min_cycle;Max_cycle;Signal;HPM_P1;HPM_P2
2023/04/28 00:01:07;;;;;;;4.50;4.10;;;12.40;99.90;;;;;;5055565;28;20405;-46
2023/04/28 00:03:32;;;;;;;4.27;3.33;;;12.50;96.20;;;;;;5056682;28;20170;-44
2023/04/28 00:05:58;;;;;;;4.50;3.83;;;12.60;99.90;;;;;;5057426;28;20178;-44
2023/04/28 00:08:25;;;;;;;3.83;3.40;;;12.60;99.90;;;;;;5057034;28;20637;-44
2023/04/28 00:10:51;;;;;;;4.00;3.70;;;12.60;99.90;;;;;;5055523;28;20468;-49
2023/04/28 00:13:17;;;;;;;4.27;3.87;;;12.50;99.90;;;;;;5054417;28;20424;-46
2023/04/28 00:15:43;;;;;;;4.83;3.67;;;12.50;99.90;;;;;;5054226;28;20447;-47
2023/04/28 00:18:09;;;;;;;4.90;4.50;;;12.40;1.00;;;;;;5053087;28;20900;-44
2023/04/28 00:20:35;;;;;;;5.33;4.40;;;12.40;1.00;;;;;;5054059;28;20193;-45
2023/04/28 00:23:01;;;;;;;4.87;3.97;;;12.40;1.00;;;;;;5053927;28;20197;-47
2023/04/28 00:25:26;;;;;;;4.93;4.53;;;12.30;99.90;;;;;;5055385;28;20426;-44
2023/04/28 00:27:52;;;;;;;5.37;4.03;;;12.30;74.90;;;;;;5055978;28;20271;-45
2023/04/28 00:30:18;;;;;;;4.43;4.03;;;12.30;11.20;;;;;;5054627;28;20568;-45
2023/04/28 00:32:43;;;;;;;6.43;4.00;;;12.20;99.90;;;;;;5056233;28;20544;-45
2023/04/28 00:35:09;;;;;;;5.23;4.70;;;12.20;99.90;;;;;;5056605;28;20253;-46
2023/04/28 00:37:36;;;;;;;4.03;3.73;;;12.20;1.00;;;;;;5056444;28;20257;-46
2023/04/28 00:40:02;;;;;;;4.87;4.33;;;12.20;1.00;;;;;;5056918;28;20186;-45
2023/04/28 00:42:27;;;;;;;4.87;4.37;;;12.20;1.00;;;;;;5056000;28;20900;-46
2023/04/28 00:44:53;;;;;;;6.83;4.60;;;12.20;1.00;;;;;;5056783;28;20228;-44
2023/04/28 00:47:19;;;;;;;6.13;5.10;;;12.20;99.90;;;;;;5056711;28;20185;-45
2023/04/28 00:49:45;;;;;;;6.03;4.90;;;12.20;99.90;;;;;;5056293;28;20260;-47
2023/04/28 00:52:10;;;;;;;5.13;4.70;;;12.20;1.00;;;;;;5055020;28;20579;-47
2023/04/28 00:54:37;;;;;;;6.07;4.60;;;12.20;32.20;;;;;;5056845;28;20177;-45
2023/04/28 00:57:03;;;;;;;5.10;4.40;;;12.20;99.90;;;;;;5056559;28;20170;-45
2023/04/28 00:59:29;;;;;;;5.20;4.60;;;12.20;99.90;;;;;;5055345;28;20468;-44
2023/04/28 01:01:55;;;;;;;4.33;3.93;;;12.10;1.00;;;;;;5056055;28;20423;-43
2023/04/28 01:04:22;;;;;;;4.03;3.63;;;12.20;1.00;;;;;;5055462;28;20435;-44
2023/04/28 01:06:48;;;;;;;5.07;4.60;;;12.20;1.00;;;;;;5055596;28;20192;-47
2023/04/28 01:09:14;;;;;;;5.17;4.67;;;12.20;1.00;;;;;;5054709;28;20428;-44
2023/04/28 01:11:40;;;;;;;5.50;5.00;;;12.20;1.00;;;;;;5055481;28;20412;-43
2023/04/28 01:14:06;;;;;;;4.60;4.10;;;12.10;44.20;;;;;;5054370;28;20438;-43
2023/04/28 01:16:32;;;;;;;5.90;4.60;;;12.10;99.90;;;;;;5053663;28;20548;-44
2023/04/28 01:18:59;;;;;;;5.30;4.80;;;12.20;99.90;;;;;;5036995;28;20240;-45
2023/04/28 01:21:31;;;;;;;6.30;4.57;;;12.10;88.10;;;;;;5054332;28;20878;-43
2023/04/28 01:23:57;;;;;;;5.07;4.53;;;12.10;1.00;;;;;;5055585;28;20420;-43
2023/04/28 01:26:23;;;;;;;4.60;4.20;;;12.10;1.00;;;;;;5053897;28;20412;-43
2023/04/28 01:28:49;;;;;;;4.80;4.37;;;12.10;1.00;;;;;;5056326;28;20487;-46
2023/04/28 01:31:15;;;;;;;5.00;4.50;;;12.20;1.00;;;;;;5058575;28;20408;-44
2023/04/28 01:33:41;;;;;;;4.80;4.30;;;12.20;1.00;;;;;;5059061;28;20243;-46
2023/04/28 01:36:07;;;;;;;5.70;4.67;;;12.20;1.00;;;;;;5059100;28;20696;-44
2023/04/28 01:38:32;;;;;;;5.13;4.03;;;12.20;1.00;;;;;;5058985;28;20205;-46
2023/04/28 01:40:58;;;;;;;5.20;4.37;;;12.20;99.90;;;;;;5059508;28;20431;-45
2023/04/28 01:43:24;;;;;;;5.57;4.17;;;12.20;99.90;;;;;;5058612;28;20170;-45
2023/04/28 01:45:50;;;;;;;3.93;3.50;;;12.20;1.00;;;;;;5059165;28;20670;-44
2023/04/28 01:48:16;;;;;;;4.30;3.90;;;12.20;1.00;;;;;;5058673;28;20170;-43
2023/04/28 01:50:41;;;;;;;5.30;3.80;;;12.20;1.00;;;;;;5059505;28;20182;-45
2023/04/28 01:53:07;;;;;;;7.50;4.10;;;12.20;1.00;;;;;;5058602;28;20185;-43
2023/04/28 01:55:33;;;;;;;5.20;3.90;;;12.20;1.00;;;;;;5059242;28;20235;-44
2023/04/28 01:57:58;;;;;;;5.17;4.70;;;12.30;55.40;;;;;;5059037;28;20244;-44
2023/04/28 02:00:24;;;;;;;4.73;4.27;;;12.20;1.00;;;;;;5058224;28;20641;-44
2023/04/28 02:02:50;;;;;;;4.20;3.80;;;12.20;1.00;;;;;;5057838;28;20166;-43
2023/04/28 02:05:16;;;;;;;6.80;4.03;;;12.20;1.00;;;;;;5055701;28;20262;-44
2023/04/28 02:07:41;;;;;;;3.90;3.50;;;12.30;1.00;;;;;;5059271;28;20419;-48
2023/04/28 02:10:08;;;;;;;4.30;3.90;;;12.30;1.00;;;;;;5059430;28;20189;-44
2023/04/28 02:12:33;;;;;;;4.50;4.10;;;12.30;1.00;;;;;;5057257;28;20598;-45
2023/04/28 02:14:59;;;;;;;4.10;3.70;;;12.30;1.00;;;;;;5058786;28;20431;-43
2023/04/28 02:17:25;;;;;;;3.83;3.43;;;12.30;3.90;;;;;;5058921;28;20170;-44
2023/04/28 02:19:57;;;;;;;4.40;4.00;;;12.30;12.80;;;;;;5058406;28;20482;-45
2023/04/28 02:22:23;;;;;;;5.00;4.53;;;12.30;1.00;;;;;;5058657;28;20503;-44
2023/04/28 02:24:50;;;;;;;4.33;3.93;;;12.20;1.00;;;;;;5058888;28;20417;-48
2023/04/28 02:27:15;;;;;;;4.63;3.77;;;12.20;1.00;;;;;;5057120;28;20561;-45
2023/04/28 02:29:41;;;;;;;6.47;4.40;;;12.20;1.00;;;;;;5056636;28;20666;-44
2023/04/28 02:32:08;;;;;;;4.27;3.87;;;12.20;1.00;;;;;;5058193;28;20213;-44
2023/04/28 02:34:34;;;;;;;4.70;4.00;;;12.20;99.90;;;;;;5058622;28;20640;-44
2023/04/28 02:37:00;;;;;;;4.97;4.57;;;12.20;99.90;;;;;;5058012;28;20198;-44
2023/04/28 02:39:26;;;;;;;4.50;4.10;;;12.30;99.90;;;;;;5057376;28;20213;-44
2023/04/28 02:41:52;;;;;;;3.87;3.57;;;12.20;99.90;;;;;;5058309;28;20207;-46
2023/04/28 02:44:19;;;;;;;4.70;4.20;;;12.20;99.90;;;;;;5058249;28;20428;-45
2023/04/28 02:46:45;;;;;;;4.57;4.10;;;12.30;99.90;;;;;;5058751;28;20421;-47
2023/04/28 02:49:11;;;;;;;4.87;4.47;;;12.20;90.90;;;;;;5057782;28;20440;-46
2023/04/28 02:51:36;;;;;;;4.90;4.50;;;12.20;93.70;;;;;;5057867;28;20182;-44
2023/04/28 02:54:02;;;;;;;5.33;4.63;;;12.20;99.90;;;;;;5057783;28;20590;-45
2023/04/28 02:56:28;;;;;;;5.23;4.10;;;12.30;99.90;;;;;;5057235;28;20220;-44
2023/04/28 02:58:54;;;;;;;4.93;4.43;;;12.20;99.90;;;;;;5057689;28;20212;-43
2023/04/28 03:01:20;;;;;;;4.27;3.47;;;12.30;99.90;;;;;;5057576;28;20424;-43
2023/04/28 03:03:46;;;;;;;4.93;4.10;;;12.30;99.90;;;;;;5056328;28;20427;-44
2023/04/28 03:06:11;;;;;;;4.57;4.17;;;12.30;99.90;;;;;;5056103;28;20278;-45
2023/04/28 03:08:37;;;;;;;3.87;3.57;;;12.30;99.90;;;;;;5057440;28;20182;-44
2023/04/28 03:11:03;;;;;;;4.93;4.43;;;12.30;99.90;;;;;;5057775;28;20190;-46
2023/04/28 03:13:28;;;;;;;5.07;4.57;;;12.30;99.90;;;;;;5057647;28;20177;-43
2023/04/28 03:15:55;;;;;;;6.63;4.23;;;12.30;99.90;;;;;;5057537;28;20255;-44
2023/04/28 03:18:22;;;;;;;5.47;4.30;;;12.30;99.90;;;;;;5057606;28;20577;-44
2023/04/28 03:20:48;;;;;;;4.17;3.87;;;12.30;99.90;;;;;;5057186;28;20478;-46
2023/04/28 03:23:14;;;;;;;7.30;4.83;;;12.30;1.00;;;;;;5056585;28;20420;-46
2023/04/28 03:25:40;;;;;;;4.57;4.13;;;12.30;1.00;;;;;;5057444;28;20422;-44
2023/04/28 03:28:06;;;;;;;5.80;4.50;;;12.30;1.00;;;;;;5056315;28;20570;-43
2023/04/28 03:30:31;;;;;;;4.80;4.13;;;12.30;85.10;;;;;;5054915;28;20508;-45
2023/04/28 03:32:57;;;;;;;5.20;4.00;;;12.30;99.90;;;;;;5053410;28;20205;-43
2023/04/28 03:35:23;;;;;;;5.63;5.17;;;12.30;16.00;;;;;;5052564;28;20527;-44
2023/04/28 03:37:48;;;;;;;4.93;4.47;;;12.30;1.00;;;;;;5051094;28;20250;-43
2023/04/28 03:40:15;;;;;;;5.10;4.60;;;12.30;1.00;;;;;;5051430;28;20184;-46
2023/04/28 03:42:40;;;;;;;9.70;4.40;;;12.30;1.00;;;;;;5052515;28;20561;-43
2023/04/28 03:45:07;;;;;;;4.93;4.30;;;12.30;1.00;;;;;;5052590;28;20741;-44
2023/04/28 03:47:33;;;;;;;6.23;4.30;;;12.20;1.00;;;;;;5053823;28;20202;-46
2023/04/28 03:49:58;;;;;;;6.93;4.83;;;12.20;1.00;;;;;;5054477;28;20463;-44
2023/04/28 03:52:25;;;;;;;5.30;4.60;;;12.20;99.90;;;;;;5053458;28;20460;-46
2023/04/28 03:54:50;;;;;;;4.70;4.30;;;12.20;99.90;;;;;;5054942;28;20201;-44
2023/04/28 03:57:16;;;;;;;5.27;4.57;;;12.10;99.90;;;;;;5054527;28;20778;-45
2023/04/28 03:59:42;;;;;;;5.37;4.90;;;12.10;99.90;;;;;;5054949;28;20590;-43
2023/04/28 04:02:07;;;;;;;5.30;4.80;;;12.10;99.90;;;;;;5053322;28;20468;-45
2023/04/28 04:04:33;;;;;;;5.90;4.30;;;12.10;1.00;;;;;;5054242;28;20540;-44
2023/04/28 04:06:59;;;;;;;5.07;4.53;;;12.10;1.00;;;;;;5055623;28;20563;-47
2023/04/28 04:09:25;;;;;;;4.50;4.07;;;12.20;1.00;;;;;;5052949;28;20185;-44
2023/04/28 04:11:50;;;;;;;5.10;4.40;;;12.20;1.00;;;;;;5052581;28;20346;-45
2023/04/28 04:14:16;;;;;;;5.53;4.40;;;12.20;1.00;;;;;;5053680;28;20264;-46
2023/04/28 04:16:42;;;;;;;5.90;4.80;;;12.20;1.00;;;;;;5051242;28;20197;-44
2023/04/28 04:19:08;;;;;;;7.40;4.57;;;12.10;1.00;;;;;;5054005;28;20908;-44
2023/04/28 04:21:33;;;;;;;5.60;5.07;;;12.10;1.00;;;;;;5052690;28;20170;-51
2023/04/28 04:24:00;;;;;;;6.33;4.57;;;12.10;53.40;;;;;;5053972;28;20264;-45
2023/04/28 04:26:26;;;;;;;6.00;4.33;;;12.10;99.90;;;;;;5055086;28;20223;-45
2023/04/28 04:28:51;;;;;;;7.03;5.70;;;12.10;1.00;;;;;;5054573;28;20928;-45
2023/04/28 04:31:18;;;;;;;5.20;4.70;;;12.10;1.00;;;;;;5054442;28;20196;-45
2023/04/28 04:33:44;;;;;;;4.60;4.20;;;12.10;99.90;;;;;;5054438;28;20351;-46
2023/04/28 04:36:10;;;;;;;5.30;4.43;;;12.10;1.00;;;;;;5052890;28;20503;-44
2023/04/28 04:38:35;;;;;;;7.43;5.67;;;12.00;99.90;;;;;;5054098;28;20456;-44
2023/04/28 04:41:01;;;;;;;4.97;4.57;;;12.00;99.90;;;;;;5054157;28;20235;-45
2023/04/28 04:43:27;;;;;;;5.00;4.60;;;12.00;1.00;;;;;;5053523;28;20189;-45
2023/04/28 04:45:54;;;;;;;5.33;4.83;;;12.00;99.90;;;;;;5054328;28;20178;-45
2023/04/28 04:48:19;;;;;;;8.20;5.37;;;12.00;99.90;;;;;;5053596;28;20205;-44
2023/04/28 04:50:45;;;;;;;5.60;5.00;;;11.90;1.00;;;;;;5053120;28;20524;-44
2023/04/28 04:53:11;;;;;;;5.90;5.40;;;11.90;2.20;;;;;;5051945;28;20193;-44
2023/04/28 04:55:37;;;;;;;9.57;6.17;;;11.90;99.90;;;;;;5053066;28;20474;-44
2023/04/28 04:58:03;;;;;;;5.80;5.30;;;11.90;99.90;;;;;;5052189;28;20412;-44
2023/04/28 05:00:29;;;;;;;5.80;5.30;;;11.80;1.00;;;;;;5051430;28;20185;-44
2023/04/28 05:02:55;;;;;;;6.37;5.50;;;11.80;99.90;;;;;;5054573;28;20659;-45
2023/04/28 05:05:20;;;;;;;5.90;5.27;;;11.70;1.00;;;;;;5058320;28;20420;-43
2023/04/28 05:07:46;;;;;;;6.93;5.30;;;11.70;1.00;;;;;;5056478;28;20420;-46
2023/04/28 05:10:12;;;;;;;7.77;6.83;;;11.60;46.10;;;;;;5053270;28;20633;-43
2023/04/28 05:12:37;;;;;;;7.20;6.00;;;11.50;99.90;;;;;;5053306;28;20314;-47
2023/04/28 05:15:06;;;;;;;8.77;6.17;;;11.60;1.00;;;;;;5053965;28;20178;-45
2023/04/28 05:17:33;;;;;;;7.90;6.33;;;11.60;1.00;;;;;;5052658;28;20648;-43
2023/04/28 05:19:58;;;;;;;8.30;6.03;;;11.50;1.00;;;;;;5048583;28;20474;-43
2023/04/28 05:22:25;;;;;;;6.30;5.70;;;11.50;1.00;;;;;;5044893;28;20413;-43
2023/04/28 05:24:51;;;;;;;7.83;7.03;;;11.50;1.00;;;;;;5050035;28;20535;-44
2023/04/28 05:27:18;;;;;;;7.63;5.87;;;11.60;1.40;;;;;;5051176;28;20703;-44
2023/04/28 05:29:43;;;;;;;7.27;5.87;;;11.60;17.20;;;;;;5050918;28;20846;-45
2023/04/28 05:32:09;;;;;;;7.70;6.90;;;11.60;39.00;;;;;;5052947;28;20439;-43
2023/04/28 05:34:35;;;;;;;6.40;5.63;;;11.60;56.70;;;;;;5051535;28;20566;-44
2023/04/28 05:37:00;;;;;;;6.83;5.90;;;11.60;50.30;;;;;;5052603;28;20182;-46
2023/04/28 05:39:26;;;;;;;7.63;5.90;;;11.60;78.40;;;;;;5051529;28;20209;-45
2023/04/28 05:41:52;;;;;;;7.43;6.80;;;11.60;99.90;;;;;;5050769;28;20174;-43
2023/04/28 05:44:17;;;;;;;7.33;6.40;;;11.60;99.90;;;;;;5051307;28;20189;-46
2023/04/28 05:46:43;;;;;;;6.83;5.53;;;11.70;99.90;;;;;;5050607;28;20181;-43
2023/04/28 05:49:09;;;;;;;6.10;5.50;;;11.70;99.90;;;;;;5051803;28;20411;-43
2023/04/28 05:51:35;;;;;;;6.30;5.67;;;11.60;99.90;;;;;;5051700;28;20216;-43
2023/04/28 05:54:01;;;;;;;5.87;5.37;;;11.70;99.90;;;;;;5054261;28;20458;-43
2023/04/28 05:56:26;;;;;;;6.20;5.40;;;11.80;99.90;;;;;;5054560;28;20177;-45
2023/04/28 05:58:52;;;;;;;6.07;5.47;;;11.70;99.90;;;;;;5053225;28;20541;-45
2023/04/28 06:01:18;;;;;;;8.97;5.93;;;11.60;99.90;;;;;;5050296;28;20169;-43
2023/04/28 06:03:44;;;;;;;5.93;5.43;;;11.70;99.90;;;;;;5049305;28;20178;-45
2023/04/28 06:06:10;;;;;;;6.40;5.80;;;11.70;99.90;;;;;;5053720;28;20204;-44
2023/04/28 06:08:36;;;;;;;6.00;5.50;;;11.80;99.90;;;;;;5056193;28;20194;-45
2023/04/28 06:11:04;;;;;;;8.00;5.33;;;11.80;99.90;;;;;;5055552;28;20516;-44
2023/04/28 06:13:31;;;;;;;5.70;5.20;;;11.80;99.90;;;;;;5056377;28;20485;-43
2023/04/28 06:15:56;;;;;;;8.13;5.80;;;11.80;99.90;;;;;;5054442;28;20730;-46
2023/04/28 06:18:23;;;;;;;6.17;5.57;;;11.80;99.90;;;;;;5055052;28;20288;-45
2023/04/28 06:20:49;;;;;;;6.30;5.70;;;11.80;99.90;;;;;;5055063;28;20178;-44
2023/04/28 06:23:15;;;;;;;6.93;5.80;;;11.90;99.90;;;;;;5055059;28;20826;-44
2023/04/28 06:25:40;;;;;;;7.77;5.37;;;12.00;99.90;;;;;;5053116;28;20428;-45
2023/04/28 06:28:06;;;;;;;6.10;5.43;;;12.00;99.90;;;;;;5053941;28;20723;-44
2023/04/28 06:30:35;;;;;;;6.40;5.80;;;12.10;99.90;;;;;;5049957;28;20189;-44
2023/04/28 06:33:00;;;;;;;5.53;5.03;;;12.10;99.90;;;;;;5054230;28;20400;-45
2023/04/28 06:35:26;;;;;;;7.17;5.87;;;12.20;99.90;;;;;;5055334;28;20428;-44
2023/04/28 06:37:52;;;;;;;5.83;5.20;;;12.10;99.90;;;;;;5053523;28;20185;-44
2023/04/28 06:40:18;;;;;;;6.70;5.57;;;12.20;99.90;;;;;;5051727;28;20436;-44
2023/04/28 06:42:44;;;;;;;7.00;5.80;;;12.20;99.90;;;;;;5053115;28;20174;-44
2023/04/28 06:45:10;;;;;;;6.63;6.00;;;12.20;99.90;;;;;;5051541;28;20567;-46
2023/04/28 06:47:39;;;;;;;5.90;5.40;;;12.20;99.90;;;;;;5053262;28;20178;-45
2023/04/28 06:50:05;;;;;;;7.93;5.87;;;12.20;99.90;;;;;;5052483;28;20706;-44
2023/04/28 06:52:31;;;;;;;5.70;5.20;;;12.20;99.90;;;;;;5053316;28;20412;-44
2023/04/28 06:54:57;;;;;;;5.97;5.37;;;12.20;99.90;;;;;;5054248;28;20462;-44
2023/04/28 06:57:22;;;;;;;5.33;4.83;;;12.30;99.90;;;;;;5051668;28;20289;-44
2023/04/28 06:59:48;;;;;;;6.40;5.80;;;12.30;99.90;;;;;;5053555;28;20561;-45
2023/04/28 07:02:14;;;;;;;6.10;5.60;;;12.30;99.90;;;;;;5053655;28;20192;-44
2023/04/28 07:04:39;;;;;;;6.83;5.50;;;12.40;99.90;;;;;;5053580;28;20246;-44
2023/04/28 07:07:07;;;;;;;6.40;5.80;;;12.50;99.90;;;;;;5051782;28;20243;-46
2023/04/28 07:09:34;;;;;;;6.47;5.87;;;12.40;99.90;;;;;;5053000;28;20189;-45
2023/04/28 07:11:59;;;;;;;6.33;5.73;;;12.50;99.90;;;;;;5053855;28;20871;-43
2023/04/28 07:14:25;;;;;;;5.90;5.03;;;12.40;99.90;;;;;;5054651;28;20423;-45
2023/04/28 07:16:50;;;;;;;6.10;5.40;;;12.40;99.90;;;;;;5052744;28;20568;-45
2023/04/28 07:19:16;;;;;;;5.60;5.00;;;12.50;99.90;;;;;;5050694;28;20581;-46
2023/04/28 07:21:42;;;;;;;7.50;5.43;;;12.60;99.90;;;;;;5051252;28;20583;-46
2023/04/28 07:24:07;;;;;;;5.90;5.40;;;12.60;99.90;;;;;;5050490;28;20574;-44
2023/04/28 07:26:33;;;;;;;8.23;5.10;;;12.60;99.90;;;;;;5051326;28;20240;-43
2023/04/28 07:28:59;;;;;;;6.57;5.60;;;12.70;99.90;;;;;;5051252;28;20225;-44
2023/04/28 07:31:25;;;;;;;5.93;5.30;;;12.70;99.90;;;;;;5050024;28;20201;-43
2023/04/28 07:33:50;;;;;;;5.83;5.33;;;12.70;99.90;;;;;;5051039;28;20185;-43
2023/04/28 07:36:16;;;;;;;6.07;5.47;;;12.80;99.90;;;;;;5051796;28;20430;-44
2023/04/28 07:38:42;;;;;;;6.70;6.10;;;12.70;99.90;;;;;;5047213;28;20236;-44
2023/04/28 07:41:07;;;;;;;6.00;5.40;;;12.70;99.90;;;;;;5048616;28;20188;-43
2023/04/28 07:43:33;;;;;;;6.47;5.87;;;12.70;99.90;;;;;;5048801;28;20166;-43
2023/04/28 07:45:59;;;;;;;6.83;6.20;;;12.60;99.90;;;;;;5051653;28;20460;-44
2023/04/28 07:48:26;;;;;;;8.30;6.40;;;12.60;99.90;;;;;;5053351;28;20217;-46
2023/04/28 07:50:52;;;;;;;5.67;5.17;;;12.70;99.90;;;;;;5052808;28;20291;-44
2023/04/28 07:53:18;;;;;;;8.97;5.83;;;12.80;99.90;;;;;;5051821;28;20424;-44
2023/04/28 07:55:44;;;;;;;6.47;5.87;;;12.90;99.90;;;;;;5052308;28;20439;-44
2023/04/28 07:58:11;;;;;;;6.60;5.90;;;12.90;99.90;;;;;;5053743;28;20186;-43
2023/04/28 08:00:37;;;;;;;6.07;5.57;;;13.00;99.90;;;;;;5043629;28;20435;-45
2023/04/28 08:03:02;;;;;;;6.47;5.77;;;13.10;99.90;;;;;;5035235;28;20417;-42
2023/04/28 08:05:28;;;;;;;6.13;5.63;;;13.10;99.90;;;;;;5034394;28;20421;-43
2023/04/28 08:07:54;;;;;;;8.80;6.33;;;13.10;99.90;;;;;;5034310;28;20202;-42
2023/04/28 08:10:20;;;;;;;6.70;6.10;;;13.10;99.90;;;;;;5035670;28;20251;-44
2023/04/28 08:12:46;;;;;;;5.97;5.43;;;13.20;99.90;;;;;;5034988;28;20274;-46
2023/04/28 08:15:12;;;;;;;6.37;5.50;;;13.20;99.90;;;;;;5034863;28;20471;-46
2023/04/28 08:17:37;;;;;;;6.10;5.30;;;13.20;99.90;;;;;;5034731;28;20221;-43
2023/04/28 08:20:05;;;;;;;6.20;5.57;;;13.20;99.90;;;;;;5034105;28;20503;-46
2023/04/28 08:22:31;;;;;;;5.40;5.00;;;13.30;99.90;;;;;;5033566;28;20491;-44
2023/04/28 08:24:56;;;;;;;7.10;5.73;;;13.40;99.90;;;;;;5032617;28;20730;-45
2023/04/28 08:27:23;;;;;;;6.60;5.63;;;13.40;99.90;;;;;;5031042;28;20213;-45
2023/04/28 08:29:49;;;;;;;5.70;5.20;;;13.40;99.90;;;;;;5032802;28;20592;-45
2023/04/28 08:32:15;;;;;;;7.63;5.97;;;13.40;99.90;;;;;;5032237;28;20424;-47
2023/04/28 08:34:40;;;;;;;6.60;5.90;;;13.40;99.90;;;;;;5032656;28;20178;-47
2023/04/28 08:37:06;;;;;;;7.03;5.60;;;13.50;99.90;;;;;;5032538;28;20182;-44
2023/04/28 08:39:34;;;;;;;5.70;5.20;;;13.60;99.90;;;;;;5033378;28;20206;-44
2023/04/28 08:42:03;;;;;;;6.07;5.53;;;13.70;99.90;;;;;;5033881;28;20277;-46
2023/04/28 08:44:38;;;;;;;5.67;5.17;;;13.80;99.90;;;;;;5034545;28;20429;-45
2023/04/28 08:47:11;;;;;;;5.30;4.90;;;13.80;99.90;;;;;;5032898;28;20429;-46
2023/04/28 08:49:37;;;;;;;5.23;4.83;;;13.90;99.90;;;;;;5032418;28;20482;-44
2023/04/28 08:52:10;;;;;;;5.53;5.03;;;14.00;99.90;;;;;;5031870;28;20523;-46
2023/04/28 08:54:37;;;;;;;6.00;4.90;;;14.00;99.90;;;;;;5032443;28;20726;-45
2023/04/28 08:57:04;;;;;;;5.20;4.80;;;14.10;99.90;;;;;;5033074;28;20485;-44
2023/04/28 08:59:30;;;;;;;5.63;4.87;;;14.10;99.90;;;;;;5033041;28;20465;-45
2023/04/28 09:01:56;;;;;;;4.93;4.43;;;14.10;99.90;;;;;;5031365;28;20417;-44
2023/04/28 09:04:22;;;;;;;5.73;4.87;;;14.20;99.90;;;;;;5031108;28;20425;-45
2023/04/28 09:06:47;;;;;;;5.50;4.50;;;14.20;99.90;;;;;;5040597;28;20186;-48
2023/04/28 09:09:26;;;;;;;3.87;3.50;;;14.30;99.90;;;;;;5051759;28;20184;-46
2023/04/28 09:11:54;;;;;;;4.37;3.97;;;14.20;99.90;;;;;;5050943;28;20169;-43
2023/04/28 09:14:20;;;;;;;3.70;3.40;;;14.30;99.90;;;;;;5033526;28;20428;-44
2023/04/28 09:16:46;;;;;;;5.03;4.20;;;14.30;99.90;;;;;;5051769;28;20720;-44
2023/04/28 09:19:11;;;;;;;2.80;2.60;;;14.40;99.90;;;;;;5053675;28;20555;-45
2023/04/28 09:21:56;;;;;;;4.10;3.70;;;14.50;99.90;;;;;;5052337;28;20580;-45
2023/04/28 09:24:41;;;;;;;4.97;3.00;;;14.40;99.90;;;;;;5051363;28;20178;-46
2023/04/28 09:27:10;;;;;;;3.50;2.63;;;14.60;99.90;;;;;;5052161;28;20426;-45
2023/04/28 09:29:37;;;;;;;3.33;3.03;;;14.70;99.90;;;;;;5051422;28;20925;-44
2023/04/28 09:32:19;;;;;;;4.67;2.93;;;14.80;99.90;;;;;;5050474;28;20421;-43
2023/04/28 09:34:50;;;;;;;3.10;2.53;;;14.80;99.90;;;;;;5052638;28;20517;-44
2023/04/28 09:37:18;;;;;;;3.47;2.80;;;14.90;99.90;;;;;;5053130;28;20424;-44
2023/04/28 09:39:45;;;;;;;3.87;3.37;;;15.00;99.90;;;;;;5052842;28;20726;-48
2023/04/28 09:42:42;;;;;;;3.53;3.23;;;15.10;99.90;;;;;;5053482;28;20862;-44
2023/04/28 09:45:09;;;;;;;3.90;3.33;;;15.30;99.90;;;;;;5054036;28;20444;-45
2023/04/28 09:47:37;;;;;;;8.50;3.00;;;15.60;99.90;;;;;;5054300;28;20499;-47
2023/04/28 09:50:13;;;;;;;3.53;2.70;;;15.70;99.90;;;;;;5052690;28;20527;-45
2023/04/28 09:52:40;;;;;;;2.60;2.40;;;15.70;99.90;;;;;;5055813;28;20416;-44
2023/04/28 09:55:10;;;;;;;3.53;3.23;;;15.70;99.90;;;;;;5055596;28;20420;-44
2023/04/28 09:57:37;;;;;;;2.87;2.53;;;15.80;99.90;;;;;;5056224;28;20841;-44
2023/04/28 10:00:06;;;;;;;2.50;2.20;;;15.90;99.90;;;;;;5055459;28;20602;-44
2023/04/28 10:02:34;;;;;;;3.20;2.43;;;16.30;99.90;;;;;;5053713;28;20404;-46
2023/04/28 10:05:00;;;;;;;3.77;2.10;;;16.30;1.00;;;;;;5054566;28;20420;-44
2023/04/28 10:07:26;;;;;;;3.07;2.43;;;16.50;31.90;;;;;;5052522;28;20846;-47
2023/04/28 10:09:52;;;;;;;2.60;1.80;;;16.60;1.00;;;;;;5053739;28;20177;-45
2023/04/28 10:12:25;;;;;;;2.30;1.70;;;16.70;1.00;;;;;;5055211;28;20420;-46
2023/04/28 10:14:54;;;;;;;1.60;1.50;;;16.50;99.90;;;;;;5055308;28;20435;-46
2023/04/28 10:17:28;;;;;;;2.03;1.23;;;16.50;1.00;;;;;;5054794;28;20435;-47
2023/04/28 10:19:53;;;;;;;2.67;1.10;;;16.50;99.90;;;;;;5055586;28;20475;-44
2023/04/28 10:22:41;;;;;;;1.40;0.87;;;16.50;99.90;;;;;;5052870;28;20848;-43
2023/04/28 10:25:16;;;;;;;1.20;0.87;;;16.30;99.90;;;;;;5053430;28;20178;-44
2023/04/28 10:27:44;;;;;;;1.40;0.90;;;16.20;1.00;;;;;;5054179;28;20427;-44
2023/04/28 10:30:16;;;;;;;1.73;1.30;;;16.20;1.00;;;;;;5053249;28;20503;-44
2023/04/28 10:32:42;;;;;;;1.10;0.77;;;16.40;1.00;;;;;;5054275;28;20821;-46
2023/04/28 10:35:20;;;;;;;1.27;0.80;;;16.60;99.90;;;;;;5053967;28;20675;-44
2023/04/28 10:38:11;;;;;;;1.67;0.80;;;16.80;99.90;;;;;;5049339;28;20526;-46
2023/04/28 10:40:40;;;;;;;1.37;0.90;;;16.90;42.00;;;;;;5052473;28;20424;-45
2023/04/28 10:43:08;;;;;;;1.70;0.87;;;17.00;99.90;;;;;;5051407;28;20898;-45
2023/04/28 10:45:55;;;;;;;1.30;0.90;;;16.90;1.00;;;;;;5052764;28;20718;-46
2023/04/28 10:48:46;;;;;;;1.30;1.03;;;17.00;99.90;;;;;;5052572;28;20606;-46
2023/04/28 10:51:14;;;;;;;1.33;0.97;;;17.10;99.90;;;;;;5044372;28;20668;-46
2023/04/28 10:53:43;;;;;;;1.63;1.17;;;17.10;1.00;;;;;;5051552;28;20420;-45
2023/04/28 10:56:24;;;;;;;2.47;1.10;;;17.10;1.00;;;;;;5051394;28;20408;-46
2023/04/28 10:58:50;;;;;;;3.40;1.20;;;17.20;1.00;;;;;;5048670;28;20479;-44
2023/04/28 11:01:25;;;;;;;2.23;0.90;;;17.50;1.00;;;;;;5046791;28;20420;-45
2023/04/28 11:04:15;;;;;;;1.50;1.00;;;17.50;14.20;;;;;;5050334;28;20423;-42
2023/04/28 11:06:43;;;;;;;1.10;0.90;;;17.50;1.00;;;;;;5033008;28;20543;-44
2023/04/28 11:09:12;;;;;;;1.10;0.70;;;17.50;1.00;;;;;;5046215;28;20474;-43
2023/04/28 11:11:57;;;;;;;1.57;1.10;;;17.40;1.00;;;;;;5052393;28;20527;-45
2023/04/28 11:14:22;;;;;;;1.40;0.77;;;17.30;57.50;;;;;;5049831;28;20455;-45
2023/04/28 11:17:02;;;;;;;2.07;1.10;;;17.30;99.90;;;;;;5051783;28;20424;-43
2023/04/28 11:19:33;;;;;;;1.23;0.70;;;17.40;2.90;;;;;;5048763;28;20212;-44
2023/04/28 11:22:00;;;;;;;1.90;1.03;;;17.30;1.00;;;;;;5052374;28;20427;-44
2023/04/28 11:24:29;;;;;;;1.20;0.70;;;17.40;99.90;;;;;;5053188;28;20737;-44
2023/04/28 11:26:56;;;;;;;1.83;0.87;;;17.40;1.00;;;;;;5050449;28;20739;-46
2023/04/28 11:29:32;;;;;;;1.10;0.60;;;17.60;99.90;;;;;;5049168;28;20571;-45
2023/04/28 11:31:57;;;;;;;1.77;0.70;;;17.80;99.90;;;;;;5046903;28;20435;-44
2023/04/28 11:34:24;;;;;;;2.07;0.60;;;17.90;1.00;;;;;;5046504;28;20786;-43
2023/04/28 11:36:49;;;;;;;1.03;0.70;;;17.90;99.90;;;;;;5049083;28;20276;-46
2023/04/28 11:39:15;;;;;;;1.00;0.57;;;18.10;99.90;;;;;;5050402;28;20735;-43
2023/04/28 11:41:43;;;;;;;1.00;0.67;;;18.20;1.00;;;;;;5049849;28;20177;-46
2023/04/28 11:44:16;;;;;;;2.30;0.80;;;18.10;1.00;;;;;;5050507;28;20417;-45
2023/04/28 11:46:50;;;;;;;2.07;0.70;;;18.00;99.90;;;;;;5050388;28;20722;-45
2023/04/28 11:49:17;;;;;;;0.80;0.40;;;18.10;1.00;;;;;;5051077;28;20776;-44
2023/04/28 11:51:45;;;;;;;1.10;0.70;;;18.10;99.90;;;;;;5051164;28;20447;-43
2023/04/28 11:54:13;;;;;;;1.90;0.93;;;18.00;99.90;;;;;;5051087;28;20523;-46
2023/04/28 11:56:40;;;;;;;0.90;0.57;;;18.00;99.90;;;;;;5051537;28;20425;-47
2023/04/28 11:59:08;;;;;;;1.10;0.70;;;17.90;99.90;;;;;;5051073;28;20476;-43
2023/04/28 12:01:43;;;;;;;1.40;0.53;;;17.80;1.00;;;;;;5049294;28;20424;-43
2023/04/28 12:04:09;;;;;;;1.13;0.60;;;17.70;1.00;;;;;;5049097;28;20459;-44
2023/04/28 12:06:34;;;;;;;1.47;0.67;;;17.50;1.00;;;;;;5051594;28;20458;-44
2023/04/28 12:09:04;;;;;;;1.00;0.57;;;17.30;1.00;;;;;;5052796;28;20272;-43
2023/04/28 12:11:30;;;;;;;1.20;0.70;;;17.20;99.90;;;;;;5051877;28;20186;-44
2023/04/28 12:14:03;;;;;;;1.20;0.70;;;17.10;1.00;;;;;;5051608;28;20677;-45
2023/04/28 12:16:42;;;;;;;1.87;0.67;;;17.20;1.00;;;;;;5050281;28;20178;-44
2023/04/28 12:19:09;;;;;;;1.50;0.80;;;17.20;1.00;;;;;;5050981;28;20460;-47
2023/04/28 12:21:39;;;;;;;1.30;0.70;;;17.30;99.90;;;;;;5051270;28;20408;-44
2023/04/28 12:24:20;;;;;;;1.37;0.80;;;17.30;1.00;;;;;;5050110;28;20416;-43
2023/04/28 12:26:47;;;;;;;1.10;0.80;;;17.50;1.00;;;;;;5050790;28;20420;-44
2023/04/28 12:29:38;;;;;;;1.57;0.70;;;17.70;99.90;;;;;;5052989;28;20467;-44
2023/04/28 12:32:08;;;;;;;1.00;0.60;;;17.90;74.40;;;;;;5051959;28;20542;-46
2023/04/28 12:34:34;;;;;;;1.00;0.60;;;18.20;1.00;;;;;;5052867;28;20412;-46
2023/04/28 12:37:01;;;;;;;1.20;0.80;;;18.20;99.90;;;;;;5052675;28;20753;-44
2023/04/28 12:39:27;;;;;;;2.10;0.60;;;18.20;99.90;;;;;;5050426;28;20871;-47
2023/04/28 12:41:58;;;;;;;3.07;0.80;;;18.10;99.90;;;;;;5050287;28;20767;-44
2023/04/28 12:44:23;;;;;;;2.13;0.70;;;18.20;99.90;;;;;;5049592;28;20683;-43
2023/04/28 12:46:50;;;;;;;1.27;0.73;;;18.10;91.90;;;;;;5048823;28;20707;-44
2023/04/28 12:49:16;;;;;;;1.20;0.70;;;17.90;99.90;;;;;;5048274;28;20412;-43
2023/04/28 12:51:42;;;;;;;1.57;0.70;;;17.90;99.90;;;;;;5046303;28;20432;-44